sensor_id;sensor_type;location;lat;lon;timestamp;temperature;humidity
18779;DHT22;9518;51.720;14.384;2023-07-13T00:02:05;19.70;62.50
18779;DHT22;9518;51.720;14.384;2023-07-13T00:04:32;19.70;63.00
18779;DHT22;9518;51.720;14.384;2023-07-13T00:07:01;19.70;62.60
18779;DHT22;9518;51.720;14.384;2023-07-13T00:09:28;19.90;62.80
18779;DHT22;9518;51.720;14.384;2023-07-13T00:11:56;19.90;62.60
18779;DHT22;9518;51.720;14.384;2023-07-13T00:14:26;19.90;63.10
18779;DHT22;9518;51.720;14.384;2023-07-13T00:16:54;19.80;62.70
18779;DHT22;9518;51.720;14.384;2023-07-13T00:19:21;19.90;63.00
18779;DHT22;9518;51.720;14.384;2023-07-13T00:21:49;19.90;63.00
18779;DHT22;9518;51.720;14.384;2023-07-13T00:24:18;19.90;63.60
18779;DHT22;9518;51.720;14.384;2023-07-13T00:26:49;19.80;63.60
18779;DHT22;9518;51.720;14.384;2023-07-13T00:29:16;19.80;64.10
18779;DHT22;9518;51.720;14.384;2023-07-13T00:31:43;19.70;63.90
18779;DHT22;9518;51.720;14.384;2023-07-13T00:34:10;19.70;64.00
18779;DHT22;9518;51.720;14.384;2023-07-13T00:36:37;19.60;64.20
18779;DHT22;9518;51.720;14.384;2023-07-13T00:39:04;19.40;64.20
18779;DHT22;9518;51.720;14.384;2023-07-13T00:41:33;19.30;65.00
18779;DHT22;9518;51.720;14.384;2023-07-13T00:44:03;19.20;65.60
18779;DHT22;9518;51.720;14.384;2023-07-13T00:46:31;19.00;99.90
18779;DHT22;9518;51.720;14.384;2023-07-13T00:49:01;18.90;99.90
18779;DHT22;9518;51.720;14.384;2023-07-13T00:51:32;18.80;99.90
18779;DHT22;9518;51.720;14.384;2023-07-13T00:54:04;18.70;99.90
18779;DHT22;9518;51.720;14.384;2023-07-13T00:56:34;18.60;99.90
18779;DHT22;9518;51.720;14.384;2023-07-13T00:59:03;18.60;99.90
18779;DHT22;9518;51.720;14.384;2023-07-13T01:01:32;18.50;99.90
18779;DHT22;9518;51.720;14.384;2023-07-13T01:03:59;18.50;99.90
18779;DHT22;9518;51.720;14.384;2023-07-13T01:06:26;18.40;99.90
18779;DHT22;9518;51.720;14.384;2023-07-13T01:08:54;18.50;1.00
18779;DHT22;9518;51.720;14.384;2023-07-13T01:11:22;18.50;1.00
18779;DHT22;9518;51.720;14.384;2023-07-13T01:13:51;18.50;1.00
18779;DHT22;9518;51.720;14.384;2023-07-13T01:16:24;18.50;1.00
18779;DHT22;9518;51.720;14.384;2023-07-13T01:18:52;18.60;1.00
18779;DHT22;9518;51.720;14.384;2023-07-13T01:21:21;18.70;99.90
18779;DHT22;9518;51.720;14.384;2023-07-13T01:23:48;18.70;99.90
18779;DHT22;9518;51.720;14.384;2023-07-13T01:26:15;18.80;1.00
18779;DHT22;9518;51.720;14.384;2023-07-13T01:28:43;18.90;1.00
18779;DHT22;9518;51.720;14.384;2023-07-13T01:31:10;19.00;1.00
18779;DHT22;9518;51.720;14.384;2023-07-13T01:33:39;19.10;99.90
18779;DHT22;9518;51.720;14.384;2023-07-13T01:36:07;19.20;99.90
18779;DHT22;9518;51.720;14.384;2023-07-13T01:38:36;19.20;1.00
18779;DHT22;9518;51.720;14.384;2023-07-13T01:41:03;19.20;99.90
18779;DHT22;9518;51.720;14.384;2023-07-13T01:43:31;19.20;99.90
18779;DHT22;9518;51.720;14.384;2023-07-13T01:45:58;19.20;99.90
18779;DHT22;9518;51.720;14.384;2023-07-13T01:48:25;19.20;99.90
18779;DHT22;9518;51.720;14.384;2023-07-13T01:50:52;19.20;99.90
18779;DHT22;9518;51.720;14.384;2023-07-13T01:53:19;19.20;99.90
18779;DHT22;9518;51.720;14.384;2023-07-13T01:55:48;19.10;99.90
18779;DHT22;9518;51.720;14.384;2023-07-13T01:58:15;19.10;99.90
18779;DHT22;9518;51.720;14.384;2023-07-13T02:00:42;19.10;99.90
18779;DHT22;9518;51.720;14.384;2023-07-13T02:03:09;19.20;99.90
18779;DHT22;9518;51.720;14.384;2023-07-13T02:05:37;19.20;99.90
18779;DHT22;9518;51.720;14.384;2023-07-13T02:08:04;19.20;99.90
18779;DHT22;9518;51.720;14.384;2023-07-13T02:10:31;19.10;99.90
18779;DHT22;9518;51.720;14.384;2023-07-13T02:13:03;19.10;99.90
18779;DHT22;9518;51.720;14.384;2023-07-13T02:15:30;19.10;99.90
18779;DHT22;9518;51.720;14.384;2023-07-13T02:17:58;19.10;99.90
18779;DHT22;9518;51.720;14.384;2023-07-13T02:20:25;19.20;99.90
18779;DHT22;9518;51.720;14.384;2023-07-13T02:22:53;19.10;99.90
18779;DHT22;9518;51.720;14.384;2023-07-13T02:25:20;19.10;1.00
18779;DHT22;9518;51.720;14.384;2023-07-13T02:27:47;19.10;1.00
18779;DHT22;9518;51.720;14.384;2023-07-13T02:30:15;19.00;1.00
18779;DHT22;9518;51.720;14.384;2023-07-13T02:32:43;19.00;1.00
18779;DHT22;9518;51.720;14.384;2023-07-13T02:35:10;18.90;1.00
18779;DHT22;9518;51.720;14.384;2023-07-13T02:37:37;18.80;1.00
18779;DHT22;9518;51.720;14.384;2023-07-13T02:40:05;18.70;1.00
18779;DHT22;9518;51.720;14.384;2023-07-13T02:42:34;18.60;1.00
18779;DHT22;9518;51.720;14.384;2023-07-13T02:45:01;18.40;1.00
18779;DHT22;9518;51.720;14.384;2023-07-13T02:47:31;18.30;1.00
18779;DHT22;9518;51.720;14.384;2023-07-13T02:49:58;18.20;1.00
18779;DHT22;9518;51.720;14.384;2023-07-13T02:52:26;18.10;1.00
18779;DHT22;9518;51.720;14.384;2023-07-13T02:54:53;18.00;1.00
18779;DHT22;9518;51.720;14.384;2023-07-13T02:57:20;17.90;1.00
18779;DHT22;9518;51.720;14.384;2023-07-13T02:59:47;17.80;1.00
18779;DHT22;9518;51.720;14.384;2023-07-13T03:02:15;17.70;1.00
18779;DHT22;9518;51.720;14.384;2023-07-13T03:04:44;17.50;1.00
18779;DHT22;9518;51.720;14.384;2023-07-13T03:07:11;17.50;1.00
18779;DHT22;9518;51.720;14.384;2023-07-13T03:09:39;17.40;1.00
18779;DHT22;9518;51.720;14.384;2023-07-13T03:12:07;17.40;1.00
18779;DHT22;9518;51.720;14.384;2023-07-13T03:14:36;17.40;1.00
18779;DHT22;9518;51.720;14.384;2023-07-13T03:17:03;17.40;1.00
18779;DHT22;9518;51.720;14.384;2023-07-13T03:19:30;17.50;1.00
18779;DHT22;9518;51.720;14.384;2023-07-13T03:21:59;17.50;1.00
18779;DHT22;9518;51.720;14.384;2023-07-13T03:24:26;17.60;1.00
18779;DHT22;9518;51.720;14.384;2023-07-13T03:26:53;17.60;1.00
18779;DHT22;9518;51.720;14.384;2023-07-13T03:29:21;17.60;1.00
18779;DHT22;9518;51.720;14.384;2023-07-13T03:31:48;17.70;1.00
18779;DHT22;9518;51.720;14.384;2023-07-13T03:34:15;17.70;1.00
18779;DHT22;9518;51.720;14.384;2023-07-13T03:36:43;17.70;1.00
18779;DHT22;9518;51.720;14.384;2023-07-13T03:39:12;17.70;1.00
18779;DHT22;9518;51.720;14.384;2023-07-13T03:41:39;17.70;1.00
18779;DHT22;9518;51.720;14.384;2023-07-13T03:44:06;17.80;1.00
18779;DHT22;9518;51.720;14.384;2023-07-13T03:46:34;17.80;1.00
18779;DHT22;9518;51.720;14.384;2023-07-13T03:49:01;18.00;1.00
18779;DHT22;9518;51.720;14.384;2023-07-13T03:51:28;18.20;1.00
18779;DHT22;9518;51.720;14.384;2023-07-13T03:53:56;18.40;1.00
18779;DHT22;9518;51.720;14.384;2023-07-13T03:56:25;18.50;1.00
18779;DHT22;9518;51.720;14.384;2023-07-13T03:58:52;18.60;1.00
18779;DHT22;9518;51.720;14.384;2023-07-13T04:01:21;18.60;1.00
18779;DHT22;9518;51.720;14.384;2023-07-13T04:03:48;18.50;1.00
18779;DHT22;9518;51.720;14.384;2023-07-13T04:06:17;18.60;1.00
18779;DHT22;9518;51.720;14.384;2023-07-13T04:08:48;18.70;1.00
18779;DHT22;9518;51.720;14.384;2023-07-13T04:11:16;18.70;1.00
18779;DHT22;9518;51.720;14.384;2023-07-13T04:13:45;18.80;1.00
18779;DHT22;9518;51.720;14.384;2023-07-13T04:16:12;18.80;1.00
18779;DHT22;9518;51.720;14.384;2023-07-13T04:18:40;18.80;1.00
18779;DHT22;9518;51.720;14.384;2023-07-13T04:21:08;18.80;1.00
18779;DHT22;9518;51.720;14.384;2023-07-13T04:23:36;18.80;1.00
18779;DHT22;9518;51.720;14.384;2023-07-13T04:26:03;18.90;1.00
18779;DHT22;9518;51.720;14.384;2023-07-13T04:28:30;18.90;1.00
18779;DHT22;9518;51.720;14.384;2023-07-13T04:30:58;19.00;1.00
18779;DHT22;9518;51.720;14.384;2023-07-13T04:33:26;19.10;1.00
18779;DHT22;9518;51.720;14.384;2023-07-13T04:35:54;19.20;1.00
18779;DHT22;9518;51.720;14.384;2023-07-13T04:38:23;19.30;1.00
18779;DHT22;9518;51.720;14.384;2023-07-13T04:40:54;19.30;1.00
18779;DHT22;9518;51.720;14.384;2023-07-13T04:43:22;19.40;1.00
18779;DHT22;9518;51.720;14.384;2023-07-13T04:45:50;19.40;1.00
18779;DHT22;9518;51.720;14.384;2023-07-13T04:48:19;19.50;1.00
18779;DHT22;9518;51.720;14.384;2023-07-13T04:50:47;19.60;1.00
18779;DHT22;9518;51.720;14.384;2023-07-13T04:53:15;19.70;1.00
18779;DHT22;9518;51.720;14.384;2023-07-13T04:55:42;19.70;1.00
18779;DHT22;9518;51.720;14.384;2023-07-13T04:58:09;19.80;1.00
18779;DHT22;9518;51.720;14.384;2023-07-13T05:00:36;19.90;1.00
18779;DHT22;9518;51.720;14.384;2023-07-13T05:03:03;20.00;1.00
18779;DHT22;9518;51.720;14.384;2023-07-13T05:05:31;20.00;1.00
18779;DHT22;9518;51.720;14.384;2023-07-13T05:07:59;20.00;1.00
18779;DHT22;9518;51.720;14.384;2023-07-13T05:10:26;20.00;1.00
18779;DHT22;9518;51.720;14.384;2023-07-13T05:12:53;20.00;1.00
18779;DHT22;9518;51.720;14.384;2023-07-13T05:15:21;20.00;1.00
18779;DHT22;9518;51.720;14.384;2023-07-13T05:17:49;20.00;1.00
18779;DHT22;9518;51.720;14.384;2023-07-13T05:20:17;19.90;1.00
18779;DHT22;9518;51.720;14.384;2023-07-13T05:22:45;20.00;1.00
18779;DHT22;9518;51.720;14.384;2023-07-13T05:25:13;20.10;1.00
18779;DHT22;9518;51.720;14.384;2023-07-13T05:27:40;20.10;1.00
18779;DHT22;9518;51.720;14.384;2023-07-13T05:30:08;20.10;1.00
18779;DHT22;9518;51.720;14.384;2023-07-13T05:32:37;20.10;1.00
18779;DHT22;9518;51.720;14.384;2023-07-13T05:35:05;20.20;1.00
18779;DHT22;9518;51.720;14.384;2023-07-13T05:37:32;20.40;1.00
18779;DHT22;9518;51.720;14.384;2023-07-13T05:40:00;20.70;1.00
18779;DHT22;9518;51.720;14.384;2023-07-13T05:42:27;21.00;1.00
18779;DHT22;9518;51.720;14.384;2023-07-13T05:44:56;21.20;1.00
18779;DHT22;9518;51.720;14.384;2023-07-13T05:47:23;21.30;1.00
18779;DHT22;9518;51.720;14.384;2023-07-13T05:49:50;21.40;96.60
18779;DHT22;9518;51.720;14.384;2023-07-13T05:52:17;21.50;1.00
18779;DHT22;9518;51.720;14.384;2023-07-13T05:54:44;21.50;1.00
18779;DHT22;9518;51.720;14.384;2023-07-13T05:57:12;21.40;1.00
18779;DHT22;9518;51.720;14.384;2023-07-13T05:59:39;21.30;1.00
18779;DHT22;9518;51.720;14.384;2023-07-13T06:02:08;21.20;17.40
18779;DHT22;9518;51.720;14.384;2023-07-13T06:04:36;21.20;30.70
18779;DHT22;9518;51.720;14.384;2023-07-13T06:07:03;21.20;46.30
18779;DHT22;9518;51.720;14.384;2023-07-13T06:09:30;21.20;40.50
18779;DHT22;9518;51.720;14.384;2023-07-13T06:11:57;21.20;43.30
18779;DHT22;9518;51.720;14.384;2023-07-13T06:14:25;21.10;64.90
18779;DHT22;9518;51.720;14.384;2023-07-13T06:16:52;21.10;63.60
18779;DHT22;9518;51.720;14.384;2023-07-13T06:19:19;21.00;68.50
18779;DHT22;9518;51.720;14.384;2023-07-13T06:21:46;20.90;70.60
18779;DHT22;9518;51.720;14.384;2023-07-13T06:24:13;20.90;72.00
18779;DHT22;9518;51.720;14.384;2023-07-13T06:26:40;21.00;73.90
18779;DHT22;9518;51.720;14.384;2023-07-13T06:29:07;21.20;73.90
18779;DHT22;9518;51.720;14.384;2023-07-13T06:31:35;21.60;73.00
18779;DHT22;9518;51.720;14.384;2023-07-13T06:34:02;22.00;72.10
18779;DHT22;9518;51.720;14.384;2023-07-13T06:36:29;22.40;73.30
18779;DHT22;9518;51.720;14.384;2023-07-13T06:38:56;22.70;70.50
18779;DHT22;9518;51.720;14.384;2023-07-13T06:41:23;22.80;69.60
18779;DHT22;9518;51.720;14.384;2023-07-13T06:43:51;22.80;66.70
18779;DHT22;9518;51.720;14.384;2023-07-13T06:46:19;22.80;67.90
18779;DHT22;9518;51.720;14.384;2023-07-13T06:48:48;22.70;68.60
18779;DHT22;9518;51.720;14.384;2023-07-13T06:51:15;23.00;67.90
18779;DHT22;9518;51.720;14.384;2023-07-13T06:53:42;23.30;65.00
18779;DHT22;9518;51.720;14.384;2023-07-13T06:56:09;23.60;64.30
18779;DHT22;9518;51.720;14.384;2023-07-13T06:58:37;23.60;64.30
18779;DHT22;9518;51.720;14.384;2023-07-13T07:01:04;23.80;62.40
18779;DHT22;9518;51.720;14.384;2023-07-13T07:03:31;24.00;62.40
18779;DHT22;9518;51.720;14.384;2023-07-13T07:06:03;24.10;62.90
18779;DHT22;9518;51.720;14.384;2023-07-13T07:08:34;24.10;64.00
18779;DHT22;9518;51.720;14.384;2023-07-13T07:11:01;24.10;62.00
18779;DHT22;9518;51.720;14.384;2023-07-13T07:13:27;24.40;59.80
18779;DHT22;9518;51.720;14.384;2023-07-13T07:15:55;24.50;55.70
18779;DHT22;9518;51.720;14.384;2023-07-13T07:18:22;24.50;53.40
18779;DHT22;9518;51.720;14.384;2023-07-13T07:20:49;24.50;54.40
18779;DHT22;9518;51.720;14.384;2023-07-13T07:23:18;24.60;55.00
18779;DHT22;9518;51.720;14.384;2023-07-13T07:25:45;24.50;53.80
18779;DHT22;9518;51.720;14.384;2023-07-13T07:28:14;24.30;55.80
18779;DHT22;9518;51.720;14.384;2023-07-13T07:30:43;24.10;54.20
18779;DHT22;9518;51.720;14.384;2023-07-13T07:33:10;24.10;55.90
18779;DHT22;9518;51.720;14.384;2023-07-13T07:35:38;24.30;53.00
18779;DHT22;9518;51.720;14.384;2023-07-13T07:38:05;24.30;53.20
18779;DHT22;9518;51.720;14.384;2023-07-13T07:40:39;24.50;51.90
18779;DHT22;9518;51.720;14.384;2023-07-13T07:43:05;24.70;53.30
18779;DHT22;9518;51.720;14.384;2023-07-13T07:45:32;24.70;53.50
18779;DHT22;9518;51.720;14.384;2023-07-13T07:48:00;24.90;54.00
18779;DHT22;9518;51.720;14.384;2023-07-13T07:50:28;25.20;53.40
18779;DHT22;9518;51.720;14.384;2023-07-13T07:52:55;25.80;53.70
18779;DHT22;9518;51.720;14.384;2023-07-13T07:55:23;26.30;50.70
18779;DHT22;9518;51.720;14.384;2023-07-13T07:57:52;26.40;49.80
18779;DHT22;9518;51.720;14.384;2023-07-13T08:00:19;26.50;51.60
18779;DHT22;9518;51.720;14.384;2023-07-13T08:02:47;26.90;50.10
18779;DHT22;9518;51.720;14.384;2023-07-13T08:05:14;26.90;47.20
18779;DHT22;9518;51.720;14.384;2023-07-13T08:07:41;26.50;48.30
18779;DHT22;9518;51.720;14.384;2023-07-13T08:10:08;26.50;48.30
18779;DHT22;9518;51.720;14.384;2023-07-13T08:12:35;26.90;49.20
18779;DHT22;9518;51.720;14.384;2023-07-13T08:15:05;26.90;48.90
18779;DHT22;9518;51.720;14.384;2023-07-13T08:17:32;27.20;49.80
18779;DHT22;9518;51.720;14.384;2023-07-13T08:19:59;27.30;46.30
18779;DHT22;9518;51.720;14.384;2023-07-13T08:22:27;26.80;46.00
18779;DHT22;9518;51.720;14.384;2023-07-13T08:24:54;26.50;47.10
18779;DHT22;9518;51.720;14.384;2023-07-13T08:27:22;26.30;46.40
18779;DHT22;9518;51.720;14.384;2023-07-13T08:29:50;26.20;47.20
18779;DHT22;9518;51.720;14.384;2023-07-13T08:32:19;26.00;48.80
18779;DHT22;9518;51.720;14.384;2023-07-13T08:34:46;26.10;48.40
18779;DHT22;9518;51.720;14.384;2023-07-13T08:37:14;26.40;49.80
18779;DHT22;9518;51.720;14.384;2023-07-13T08:39:42;27.30;48.10
18779;DHT22;9518;51.720;14.384;2023-07-13T08:42:14;27.70;45.60
18779;DHT22;9518;51.720;14.384;2023-07-13T08:44:53;28.10;44.30
18779;DHT22;9518;51.720;14.384;2023-07-13T08:47:26;28.10;42.30
18779;DHT22;9518;51.720;14.384;2023-07-13T08:49:53;28.50;43.30
18779;DHT22;9518;51.720;14.384;2023-07-13T08:52:28;28.50;42.90
18779;DHT22;9518;51.720;14.384;2023-07-13T08:54:58;28.20;42.40
18779;DHT22;9518;51.720;14.384;2023-07-13T08:57:33;27.80;43.20
18779;DHT22;9518;51.720;14.384;2023-07-13T09:00:01;27.90;44.30
18779;DHT22;9518;51.720;14.384;2023-07-13T09:02:41;27.70;43.50
18779;DHT22;9518;51.720;14.384;2023-07-13T09:05:13;27.40;44.10
18779;DHT22;9518;51.720;14.384;2023-07-13T09:10:43;27.40;43.50
18779;DHT22;9518;51.720;14.384;2023-07-13T09:13:22;27.40;44.00
18779;DHT22;9518;51.720;14.384;2023-07-13T09:15:54;27.40;43.30
18779;DHT22;9518;51.720;14.384;2023-07-13T09:18:28;27.70;43.80
18779;DHT22;9518;51.720;14.384;2023-07-13T09:20:58;28.20;43.50
18779;DHT22;9518;51.720;14.384;2023-07-13T09:23:29;28.30;41.40
18779;DHT22;9518;51.720;14.384;2023-07-13T09:26:02;28.20;43.10
18779;DHT22;9518;51.720;14.384;2023-07-13T09:28:36;28.10;43.40
18779;DHT22;9518;51.720;14.384;2023-07-13T09:31:09;28.00;43.10
18779;DHT22;9518;51.720;14.384;2023-07-13T09:33:43;28.10;41.50
18779;DHT22;9518;51.720;14.384;2023-07-13T09:36:23;27.70;42.30
18779;DHT22;9518;51.720;14.384;2023-07-13T09:39:09;27.30;44.30
18779;DHT22;9518;51.720;14.384;2023-07-13T09:41:44;27.20;43.90
18779;DHT22;9518;51.720;14.384;2023-07-13T09:44:15;27.00;44.90
18779;DHT22;9518;51.720;14.384;2023-07-13T09:46:45;27.00;44.50
18779;DHT22;9518;51.720;14.384;2023-07-13T09:49:18;26.80;45.70
18779;DHT22;9518;51.720;14.384;2023-07-13T09:51:45;27.10;46.10
18779;DHT22;9518;51.720;14.384;2023-07-13T09:54:20;27.40;43.60
18779;DHT22;9518;51.720;14.384;2023-07-13T09:56:47;27.20;42.90
18779;DHT22;9518;51.720;14.384;2023-07-13T09:59:20;27.30;46.30
18779;DHT22;9518;51.720;14.384;2023-07-13T10:01:48;27.70;44.50
18779;DHT22;9518;51.720;14.384;2023-07-13T10:04:18;28.10;44.00
18779;DHT22;9518;51.720;14.384;2023-07-13T10:06:46;28.10;42.80
18779;DHT22;9518;51.720;14.384;2023-07-13T10:09:16;28.10;42.70
18779;DHT22;9518;51.720;14.384;2023-07-13T10:11:45;28.20;42.70
18779;DHT22;9518;51.720;14.384;2023-07-13T10:14:16;28.00;43.40
18779;DHT22;9518;51.720;14.384;2023-07-13T10:16:45;27.60;42.30
18779;DHT22;9518;51.720;14.384;2023-07-13T10:19:14;27.30;42.10
18779;DHT22;9518;51.720;14.384;2023-07-13T10:21:50;27.20;43.40
18779;DHT22;9518;51.720;14.384;2023-07-13T10:24:22;27.20;42.10
18779;DHT22;9518;51.720;14.384;2023-07-13T10:26:55;27.60;41.70
18779;DHT22;9518;51.720;14.384;2023-07-13T10:29:26;28.10;42.30
18779;DHT22;9518;51.720;14.384;2023-07-13T10:31:54;28.30;42.10
18779;DHT22;9518;51.720;14.384;2023-07-13T10:34:23;27.60;42.40
18779;DHT22;9518;51.720;14.384;2023-07-13T10:36:52;26.90;44.80
18779;DHT22;9518;51.720;14.384;2023-07-13T10:39:22;26.70;44.50
18779;DHT22;9518;51.720;14.384;2023-07-13T10:41:54;26.60;46.50
18779;DHT22;9518;51.720;14.384;2023-07-13T10:44:24;26.50;43.60
18779;DHT22;9518;51.720;14.384;2023-07-13T10:46:57;26.40;44.20
18779;DHT22;9518;51.720;14.384;2023-07-13T10:49:28;26.80;43.30
18779;DHT22;9518;51.720;14.384;2023-07-13T10:51:59;27.60;42.30
18779;DHT22;9518;51.720;14.384;2023-07-13T10:54:28;27.80;39.80
18779;DHT22;9518;51.720;14.384;2023-07-13T10:57:23;27.70;41.80
18779;DHT22;9518;51.720;14.384;2023-07-13T11:00:14;27.70;41.10
18779;DHT22;9518;51.720;14.384;2023-07-13T11:02:41;28.00;41.60
18779;DHT22;9518;51.720;14.384;2023-07-13T11:05:20;27.90;40.50
18779;DHT22;9518;51.720;14.384;2023-07-13T11:08:02;27.70;41.10
18779;DHT22;9518;51.720;14.384;2023-07-13T11:10:55;27.50;41.70
18779;DHT22;9518;51.720;14.384;2023-07-13T11:13:56;27.40;41.60
18779;DHT22;9518;51.720;14.384;2023-07-13T11:16:43;27.50;43.10
18779;DHT22;9518;51.720;14.384;2023-07-13T11:22:22;29.00;40.00
18779;DHT22;9518;51.720;14.384;2023-07-13T11:25:25;29.90;38.30
18779;DHT22;9518;51.720;14.384;2023-07-13T11:28:14;30.90;36.10
18779;DHT22;9518;51.720;14.384;2023-07-13T11:30:45;31.70;36.10
18779;DHT22;9518;51.720;14.384;2023-07-13T11:33:16;31.40;34.00
18779;DHT22;9518;51.720;14.384;2023-07-13T11:35:52;30.90;34.00
18779;DHT22;9518;51.720;14.384;2023-07-13T11:38:22;30.80;36.60
18779;DHT22;9518;51.720;14.384;2023-07-13T11:40:54;31.00;35.10
18779;DHT22;9518;51.720;14.384;2023-07-13T11:43:22;30.50;35.10
18779;DHT22;9518;51.720;14.384;2023-07-13T11:45:50;30.00;35.80
18779;DHT22;9518;51.720;14.384;2023-07-13T11:48:24;29.80;35.50
18779;DHT22;9518;51.720;14.384;2023-07-13T11:50:57;29.20;35.80
18779;DHT22;9518;51.720;14.384;2023-07-13T11:53:29;28.60;37.90
18779;DHT22;9518;51.720;14.384;2023-07-13T11:56:01;28.30;38.00
18779;DHT22;9518;51.720;14.384;2023-07-13T11:58:29;27.90;38.10
18779;DHT22;9518;51.720;14.384;2023-07-13T12:00:59;28.00;39.40
18779;DHT22;9518;51.720;14.384;2023-07-13T12:03:30;28.30;36.20
18779;DHT22;9518;51.720;14.384;2023-07-13T12:06:01;28.50;36.20
18779;DHT22;9518;51.720;14.384;2023-07-13T12:08:32;28.90;35.90
18779;DHT22;9518;51.720;14.384;2023-07-13T12:11:16;29.40;36.80
18779;DHT22;9518;51.720;14.384;2023-07-13T12:13:46;29.60;35.30
18779;DHT22;9518;51.720;14.384;2023-07-13T12:16:17;29.30;35.30
18779;DHT22;9518;51.720;14.384;2023-07-13T12:18:52;28.50;36.70
18779;DHT22;9518;51.720;14.384;2023-07-13T12:21:31;28.10;38.30
18779;DHT22;9518;51.720;14.384;2023-07-13T12:23:59;28.30;37.60
18779;DHT22;9518;51.720;14.384;2023-07-13T12:26:30;28.10;37.40
18779;DHT22;9518;51.720;14.384;2023-07-13T12:29:00;27.80;38.00
18779;DHT22;9518;51.720;14.384;2023-07-13T12:31:36;27.50;39.90
18779;DHT22;9518;51.720;14.384;2023-07-13T12:34:08;27.20;40.10
18779;DHT22;9518;51.720;14.384;2023-07-13T12:36:40;26.80;40.00
18779;DHT22;9518;51.720;14.384;2023-07-13T12:39:14;26.40;40.70
18779;DHT22;9518;51.720;14.384;2023-07-13T12:41:44;26.30;41.30
18779;DHT22;9518;51.720;14.384;2023-07-13T12:44:13;26.40;41.80
18779;DHT22;9518;51.720;14.384;2023-07-13T12:46:52;26.50;40.90
18779;DHT22;9518;51.720;14.384;2023-07-13T12:49:25;27.70;40.70
18779;DHT22;9518;51.720;14.384;2023-07-13T12:51:58;29.20;35.80
18779;DHT22;9518;51.720;14.384;2023-07-13T12:54:27;30.60;34.50
18779;DHT22;9518;51.720;14.384;2023-07-13T12:56:57;31.30;32.20
18779;DHT22;9518;51.720;14.384;2023-07-13T12:59:28;31.50;31.80
18779;DHT22;9518;51.720;14.384;2023-07-13T13:01:57;31.50;33.40
18779;DHT22;9518;51.720;14.384;2023-07-13T13:04:26;31.90;31.30
18779;DHT22;9518;51.720;14.384;2023-07-13T13:07:05;32.50;30.90
18779;DHT22;9518;51.720;14.384;2023-07-13T13:09:35;33.20;31.90
18779;DHT22;9518;51.720;14.384;2023-07-13T13:12:03;33.10;30.00
18779;DHT22;9518;51.720;14.384;2023-07-13T13:14:33;33.70;28.50
18779;DHT22;9518;51.720;14.384;2023-07-13T13:17:02;33.70;28.90
18779;DHT22;9518;51.720;14.384;2023-07-13T13:19:29;34.00;28.50
18779;DHT22;9518;51.720;14.384;2023-07-13T13:21:57;34.00;27.00
18779;DHT22;9518;51.720;14.384;2023-07-13T13:24:27;33.60;28.00
18779;DHT22;9518;51.720;14.384;2023-07-13T13:26:55;33.90;26.90
18779;DHT22;9518;51.720;14.384;2023-07-13T13:29:26;34.00;27.30
18779;DHT22;9518;51.720;14.384;2023-07-13T13:31:54;34.00;26.60
18779;DHT22;9518;51.720;14.384;2023-07-13T13:34:24;32.30;27.90
18779;DHT22;9518;51.720;14.384;2023-07-13T13:36:52;31.00;29.60
18779;DHT22;9518;51.720;14.384;2023-07-13T13:39:22;30.30;31.70
18779;DHT22;9518;51.720;14.384;2023-07-13T13:41:53;30.20;32.90
18779;DHT22;9518;51.720;14.384;2023-07-13T13:44:23;31.60;30.30
18779;DHT22;9518;51.720;14.384;2023-07-13T13:46:52;33.00;29.90
18779;DHT22;9518;51.720;14.384;2023-07-13T13:49:23;34.10;27.70
18779;DHT22;9518;51.720;14.384;2023-07-13T13:51:50;34.00;27.00
18779;DHT22;9518;51.720;14.384;2023-07-13T13:54:19;33.20;26.90
18779;DHT22;9518;51.720;14.384;2023-07-13T13:56:49;31.80;28.30
18779;DHT22;9518;51.720;14.384;2023-07-13T13:59:17;31.00;29.80
18779;DHT22;9518;51.720;14.384;2023-07-13T14:01:48;30.00;31.40
18779;DHT22;9518;51.720;14.384;2023-07-13T14:04:19;30.40;32.10
18779;DHT22;9518;51.720;14.384;2023-07-13T14:06:46;31.00;29.70
18779;DHT22;9518;51.720;14.384;2023-07-13T14:09:16;32.00;29.50
18779;DHT22;9518;51.720;14.384;2023-07-13T14:11:45;32.60;28.50
18779;DHT22;9518;51.720;14.384;2023-07-13T14:14:16;33.60;27.70
18779;DHT22;9518;51.720;14.384;2023-07-13T14:16:45;34.40;27.00
18779;DHT22;9518;51.720;14.384;2023-07-13T14:19:18;33.70;26.90
18779;DHT22;9518;51.720;14.384;2023-07-13T14:21:47;32.30;27.40
18779;DHT22;9518;51.720;14.384;2023-07-13T14:24:18;32.70;27.10
18779;DHT22;9518;51.720;14.384;2023-07-13T14:26:47;34.40;26.50
18779;DHT22;9518;51.720;14.384;2023-07-13T14:29:16;35.00;25.60
18779;DHT22;9518;51.720;14.384;2023-07-13T14:31:45;33.70;25.90
18779;DHT22;9518;51.720;14.384;2023-07-13T14:34:15;31.90;27.30
18779;DHT22;9518;51.720;14.384;2023-07-13T14:36:44;30.70;29.10
18779;DHT22;9518;51.720;14.384;2023-07-13T14:39:14;29.80;29.30
18779;DHT22;9518;51.720;14.384;2023-07-13T14:41:42;29.30;30.20
18779;DHT22;9518;51.720;14.384;2023-07-13T14:44:13;29.30;32.20
18779;DHT22;9518;51.720;14.384;2023-07-13T14:46:41;30.10;31.50
18779;DHT22;9518;51.720;14.384;2023-07-13T14:49:15;31.20;30.00
18779;DHT22;9518;51.720;14.384;2023-07-13T14:51:43;31.50;29.20
18779;DHT22;9518;51.720;14.384;2023-07-13T14:54:10;31.50;29.30
18779;DHT22;9518;51.720;14.384;2023-07-13T14:56:38;31.40;28.40
18779;DHT22;9518;51.720;14.384;2023-07-13T14:59:05;32.00;28.70
18779;DHT22;9518;51.720;14.384;2023-07-13T15:01:33;31.90;27.90
18779;DHT22;9518;51.720;14.384;2023-07-13T15:04:02;31.10;27.90
18779;DHT22;9518;51.720;14.384;2023-07-13T15:06:35;30.10;29.80
18779;DHT22;9518;51.720;14.384;2023-07-13T15:09:19;29.50;31.10
18779;DHT22;9518;51.720;14.384;2023-07-13T15:11:46;30.80;30.70
18779;DHT22;9518;51.720;14.384;2023-07-13T15:14:13;31.10;29.50
18779;DHT22;9518;51.720;14.384;2023-07-13T15:16:42;31.20;29.20
18779;DHT22;9518;51.720;14.384;2023-07-13T15:19:09;30.60;29.30
18779;DHT22;9518;51.720;14.384;2023-07-13T15:21:38;29.80;30.80
18779;DHT22;9518;51.720;14.384;2023-07-13T15:24:07;29.30;31.40
18779;DHT22;9518;51.720;14.384;2023-07-13T15:26:35;28.90;32.30
18779;DHT22;9518;51.720;14.384;2023-07-13T15:29:05;29.80;31.90
18779;DHT22;9518;51.720;14.384;2023-07-13T15:31:33;32.00;29.30
18779;DHT22;9518;51.720;14.384;2023-07-13T15:34:10;33.90;27.00
18779;DHT22;9518;51.720;14.384;2023-07-13T15:36:40;33.90;26.30
18779;DHT22;9518;51.720;14.384;2023-07-13T15:39:14;34.10;27.10
18779;DHT22;9518;51.720;14.384;2023-07-13T15:41:42;35.80;25.40
18779;DHT22;9518;51.720;14.384;2023-07-13T15:44:23;36.60;23.90
18779;DHT22;9518;51.720;14.384;2023-07-13T15:46:50;34.40;24.90
18779;DHT22;9518;51.720;14.384;2023-07-13T15:49:18;32.20;26.30
18779;DHT22;9518;51.720;14.384;2023-07-13T15:51:48;30.40;28.30
18779;DHT22;9518;51.720;14.384;2023-07-13T15:54:18;29.30;29.50
18779;DHT22;9518;51.720;14.384;2023-07-13T15:56:50;28.20;31.20